sensor_id;sensor_type;location;lat;lon;timestamp;temperature;humidity
12907;DHT22;6521;50.498;8.474;2023-04-25T00:02:09;7.68;88.22
12907;DHT22;6521;50.498;8.474;2023-04-25T00:04:39;7.68;88.14
12907;DHT22;6521;50.498;8.474;2023-04-25T00:07:10;7.72;87.95
12907;DHT22;6521;50.498;8.474;2023-04-25T00:09:42;7.71;87.86
12907;DHT22;6521;50.498;8.474;2023-04-25T00:12:12;7.66;88.04
12907;DHT22;6521;50.498;8.474;2023-04-25T00:14:43;7.66;88.11
12907;DHT22;6521;50.498;8.474;2023-04-25T00:17:16;7.66;88.42
12907;DHT22;6521;50.498;8.474;2023-04-25T00:19:47;7.65;88.46
12907;DHT22;6521;50.498;8.474;2023-04-25T00:22:18;7.62;88.55
12907;DHT22;6521;50.498;8.474;2023-04-25T00:24:49;7.63;88.62
12907;DHT22;6521;50.498;8.474;2023-04-25T00:27:21;7.61;88.74
12907;DHT22;6521;50.498;8.474;2023-04-25T00:29:52;7.58;89.01
12907;DHT22;6521;50.498;8.474;2023-04-25T00:32:23;7.58;89.09
12907;DHT22;6521;50.498;8.474;2023-04-25T00:34:54;7.56;88.80
12907;DHT22;6521;50.498;8.474;2023-04-25T00:37:26;7.51;88.27
12907;DHT22;6521;50.498;8.474;2023-04-25T00:39:58;7.47;87.94
12907;DHT22;6521;50.498;8.474;2023-04-25T00:42:29;7.41;86.38
12907;DHT22;6521;50.498;8.474;2023-04-25T00:45:00;7.36;86.16
12907;DHT22;6521;50.498;8.474;2023-04-25T00:47:32;7.41;85.93
12907;DHT22;6521;50.498;8.474;2023-04-25T00:50:03;7.42;85.81
12907;DHT22;6521;50.498;8.474;2023-04-25T00:52:34;7.38;85.98
12907;DHT22;6521;50.498;8.474;2023-04-25T00:55:06;7.35;85.98
12907;DHT22;6521;50.498;8.474;2023-04-25T00:57:37;7.32;86.07
12907;DHT22;6521;50.498;8.474;2023-04-25T01:00:09;7.31;85.60
12907;DHT22;6521;50.498;8.474;2023-04-25T01:02:41;7.30;85.59
12907;DHT22;6521;50.498;8.474;2023-04-25T01:05:12;7.25;85.07
12907;DHT22;6521;50.498;8.474;2023-04-25T01:07:44;7.24;84.27
12907;DHT22;6521;50.498;8.474;2023-04-25T01:10:15;7.24;84.36
12907;DHT22;6521;50.498;8.474;2023-04-25T01:12:47;7.17;84.56
12907;DHT22;6521;50.498;8.474;2023-04-25T01:15:17;7.10;84.36
12907;DHT22;6521;50.498;8.474;2023-04-25T01:17:48;7.07;84.10
12907;DHT22;6521;50.498;8.474;2023-04-25T01:20:21;7.03;84.09
12907;DHT22;6521;50.498;8.474;2023-04-25T01:22:53;6.99;84.01
12907;DHT22;6521;50.498;8.474;2023-04-25T01:25:25;6.92;84.02
12907;DHT22;6521;50.498;8.474;2023-04-25T01:27:57;6.89;84.03
12907;DHT22;6521;50.498;8.474;2023-04-25T01:30:28;6.87;84.20
12907;DHT22;6521;50.498;8.474;2023-04-25T01:33:00;6.84;84.30
12907;DHT22;6521;50.498;8.474;2023-04-25T01:35:33;6.82;84.54
12907;DHT22;6521;50.498;8.474;2023-04-25T01:38:03;6.77;83.81
12907;DHT22;6521;50.498;8.474;2023-04-25T01:40:38;6.75;83.57
12907;DHT22;6521;50.498;8.474;2023-04-25T01:43:11;6.71;83.56
12907;DHT22;6521;50.498;8.474;2023-04-25T01:45:42;6.68;83.45
12907;DHT22;6521;50.498;8.474;2023-04-25T01:48:15;6.69;83.27
12907;DHT22;6521;50.498;8.474;2023-04-25T01:50:47;6.68;83.14
12907;DHT22;6521;50.498;8.474;2023-04-25T01:53:18;6.65;82.91
12907;DHT22;6521;50.498;8.474;2023-04-25T01:55:50;6.62;82.40
12907;DHT22;6521;50.498;8.474;2023-04-25T01:58:23;6.56;82.47
12907;DHT22;6521;50.498;8.474;2023-04-25T02:01:17;6.53;82.33
12907;DHT22;6521;50.498;8.474;2023-04-25T02:03:56;6.55;82.52
12907;DHT22;6521;50.498;8.474;2023-04-25T02:06:38;6.50;82.53
12907;DHT22;6521;50.498;8.474;2023-04-25T02:09:08;6.45;82.71
12907;DHT22;6521;50.498;8.474;2023-04-25T02:11:44;6.45;82.42
12907;DHT22;6521;50.498;8.474;2023-04-25T02:14:34;6.38;82.56
12907;DHT22;6521;50.498;8.474;2023-04-25T02:17:18;6.32;82.58
12907;DHT22;6521;50.498;8.474;2023-04-25T02:19:49;6.29;82.35
12907;DHT22;6521;50.498;8.474;2023-04-25T02:22:20;6.26;82.46
12907;DHT22;6521;50.498;8.474;2023-04-25T02:24:52;6.22;82.72
12907;DHT22;6521;50.498;8.474;2023-04-25T02:27:24;6.18;82.86
12907;DHT22;6521;50.498;8.474;2023-04-25T02:29:55;6.14;83.00
12907;DHT22;6521;50.498;8.474;2023-04-25T02:32:26;6.14;83.07
12907;DHT22;6521;50.498;8.474;2023-04-25T02:34:57;6.07;83.21
12907;DHT22;6521;50.498;8.474;2023-04-25T02:37:36;6.04;82.47
12907;DHT22;6521;50.498;8.474;2023-04-25T02:40:08;5.94;82.03
12907;DHT22;6521;50.498;8.474;2023-04-25T02:42:39;5.91;81.63
12907;DHT22;6521;50.498;8.474;2023-04-25T02:45:10;5.90;81.94
12907;DHT22;6521;50.498;8.474;2023-04-25T02:47:41;5.86;82.29
12907;DHT22;6521;50.498;8.474;2023-04-25T02:50:11;5.83;81.61
12907;DHT22;6521;50.498;8.474;2023-04-25T02:52:44;5.78;81.60
12907;DHT22;6521;50.498;8.474;2023-04-25T02:55:23;5.74;81.09
12907;DHT22;6521;50.498;8.474;2023-04-25T02:57:53;5.71;80.83
12907;DHT22;6521;50.498;8.474;2023-04-25T03:00:38;5.66;80.57
12907;DHT22;6521;50.498;8.474;2023-04-25T03:03:09;5.64;80.41
12907;DHT22;6521;50.498;8.474;2023-04-25T03:05:40;5.60;80.21
12907;DHT22;6521;50.498;8.474;2023-04-25T03:08:11;5.55;80.25
12907;DHT22;6521;50.498;8.474;2023-04-25T03:10:43;5.50;80.20
12907;DHT22;6521;50.498;8.474;2023-04-25T03:13:14;5.45;80.56
12907;DHT22;6521;50.498;8.474;2023-04-25T03:15:47;5.46;80.41
12907;DHT22;6521;50.498;8.474;2023-04-25T03:18:18;5.39;80.61
12907;DHT22;6521;50.498;8.474;2023-04-25T03:20:49;5.32;80.60
12907;DHT22;6521;50.498;8.474;2023-04-25T03:23:20;5.31;80.71
12907;DHT22;6521;50.498;8.474;2023-04-25T03:25:50;5.24;80.90
12907;DHT22;6521;50.498;8.474;2023-04-25T03:28:21;5.18;81.07
12907;DHT22;6521;50.498;8.474;2023-04-25T03:30:52;5.12;81.09
12907;DHT22;6521;50.498;8.474;2023-04-25T03:33:24;5.11;81.28
12907;DHT22;6521;50.498;8.474;2023-04-25T03:35:55;5.04;81.38
12907;DHT22;6521;50.498;8.474;2023-04-25T03:38:26;5.04;81.58
12907;DHT22;6521;50.498;8.474;2023-04-25T03:40:57;4.99;81.52
12907;DHT22;6521;50.498;8.474;2023-04-25T03:43:35;4.88;81.69
12907;DHT22;6521;50.498;8.474;2023-04-25T03:46:15;4.91;81.72
12907;DHT22;6521;50.498;8.474;2023-04-25T03:48:47;4.91;81.86
12907;DHT22;6521;50.498;8.474;2023-04-25T03:51:25;4.89;82.01
12907;DHT22;6521;50.498;8.474;2023-04-25T03:53:56;4.87;81.97
12907;DHT22;6521;50.498;8.474;2023-04-25T03:56:35;4.85;82.10
12907;DHT22;6521;50.498;8.474;2023-04-25T03:59:17;4.80;82.35
12907;DHT22;6521;50.498;8.474;2023-04-25T04:01:49;4.77;82.51
12907;DHT22;6521;50.498;8.474;2023-04-25T04:04:20;4.73;82.49
12907;DHT22;6521;50.498;8.474;2023-04-25T04:06:51;4.68;82.46
12907;DHT22;6521;50.498;8.474;2023-04-25T04:09:28;4.70;82.89
12907;DHT22;6521;50.498;8.474;2023-04-25T04:12:00;4.64;82.91
12907;DHT22;6521;50.498;8.474;2023-04-25T04:14:34;4.60;83.01
12907;DHT22;6521;50.498;8.474;2023-04-25T04:17:05;4.57;83.20
12907;DHT22;6521;50.498;8.474;2023-04-25T04:19:36;4.54;83.31
12907;DHT22;6521;50.498;8.474;2023-04-25T04:22:25;4.53;83.57
12907;DHT22;6521;50.498;8.474;2023-04-25T04:24:59;4.53;83.51
12907;DHT22;6521;50.498;8.474;2023-04-25T04:27:59;4.50;83.72
12907;DHT22;6521;50.498;8.474;2023-04-25T04:30:44;4.52;83.32
12907;DHT22;6521;50.498;8.474;2023-04-25T04:33:17;4.46;83.36
12907;DHT22;6521;50.498;8.474;2023-04-25T04:35:56;4.49;83.23
12907;DHT22;6521;50.498;8.474;2023-04-25T04:38:27;4.49;83.05
12907;DHT22;6521;50.498;8.474;2023-04-25T04:41:00;4.52;83.07
12907;DHT22;6521;50.498;8.474;2023-04-25T04:44:01;4.52;82.83
12907;DHT22;6521;50.498;8.474;2023-04-25T04:46:42;4.50;82.83
12907;DHT22;6521;50.498;8.474;2023-04-25T04:49:50;4.53;83.05
12907;DHT22;6521;50.498;8.474;2023-04-25T04:52:38;4.53;82.85
12907;DHT22;6521;50.498;8.474;2023-04-25T04:55:41;4.56;82.61
12907;DHT22;6521;50.498;8.474;2023-04-25T04:58:36;4.53;82.82
12907;DHT22;6521;50.498;8.474;2023-04-25T05:01:26;4.60;82.38
12907;DHT22;6521;50.498;8.474;2023-04-25T05:04:05;4.63;82.47
12907;DHT22;6521;50.498;8.474;2023-04-25T05:07:05;4.67;82.31
12907;DHT22;6521;50.498;8.474;2023-04-25T05:09:36;4.73;82.18
12907;DHT22;6521;50.498;8.474;2023-04-25T05:12:27;4.74;82.32
12907;DHT22;6521;50.498;8.474;2023-04-25T05:15:11;4.80;82.51
12907;DHT22;6521;50.498;8.474;2023-04-25T05:17:57;4.81;82.33
12907;DHT22;6521;50.498;8.474;2023-04-25T05:20:54;4.81;82.31
12907;DHT22;6521;50.498;8.474;2023-04-25T05:23:43;4.89;81.99
12907;DHT22;6521;50.498;8.474;2023-04-25T05:26:39;4.88;81.93
12907;DHT22;6521;50.498;8.474;2023-04-25T05:29:29;4.95;82.15
12907;DHT22;6521;50.498;8.474;2023-04-25T05:32:26;4.99;82.02
12907;DHT22;6521;50.498;8.474;2023-04-25T05:34:57;5.02;82.09
12907;DHT22;6521;50.498;8.474;2023-04-25T05:37:35;5.09;81.90
12907;DHT22;6521;50.498;8.474;2023-04-25T05:40:14;5.14;82.31
12907;DHT22;6521;50.498;8.474;2023-04-25T05:42:45;5.18;82.32
12907;DHT22;6521;50.498;8.474;2023-04-25T05:45:35;5.19;81.70
12907;DHT22;6521;50.498;8.474;2023-04-25T05:48:26;5.18;81.68
12907;DHT22;6521;50.498;8.474;2023-04-25T05:51:15;5.21;81.75
12907;DHT22;6521;50.498;8.474;2023-04-25T05:54:10;5.31;82.15
12907;DHT22;6521;50.498;8.474;2023-04-25T05:56:42;5.35;81.50
12907;DHT22;6521;50.498;8.474;2023-04-25T05:59:13;5.39;81.59
12907;DHT22;6521;50.498;8.474;2023-04-25T06:01:44;5.43;81.48
12907;DHT22;6521;50.498;8.474;2023-04-25T06:04:15;5.45;81.33
12907;DHT22;6521;50.498;8.474;2023-04-25T06:06:46;5.47;80.98
12907;DHT22;6521;50.498;8.474;2023-04-25T06:09:17;5.55;80.62
12907;DHT22;6521;50.498;8.474;2023-04-25T06:11:48;5.64;80.86
12907;DHT22;6521;50.498;8.474;2023-04-25T06:14:18;5.71;80.54
12907;DHT22;6521;50.498;8.474;2023-04-25T06:16:53;5.74;80.53
12907;DHT22;6521;50.498;8.474;2023-04-25T06:19:24;5.77;80.67
12907;DHT22;6521;50.498;8.474;2023-04-25T06:21:55;5.81;80.97
12907;DHT22;6521;50.498;8.474;2023-04-25T06:24:25;5.93;81.00
12907;DHT22;6521;50.498;8.474;2023-04-25T06:26:56;6.04;80.20
12907;DHT22;6521;50.498;8.474;2023-04-25T06:29:27;6.10;79.69
12907;DHT22;6521;50.498;8.474;2023-04-25T06:31:58;6.17;79.86
12907;DHT22;6521;50.498;8.474;2023-04-25T06:34:29;6.22;79.32
12907;DHT22;6521;50.498;8.474;2023-04-25T06:37:00;6.36;78.98
12907;DHT22;6521;50.498;8.474;2023-04-25T06:39:31;6.49;78.49
12907;DHT22;6521;50.498;8.474;2023-04-25T06:42:02;6.56;78.39
12907;DHT22;6521;50.498;8.474;2023-04-25T06:44:44;6.59;78.55
12907;DHT22;6521;50.498;8.474;2023-04-25T06:47:17;6.66;78.59
12907;DHT22;6521;50.498;8.474;2023-04-25T06:49:48;6.71;78.68
12907;DHT22;6521;50.498;8.474;2023-04-25T06:52:19;6.80;78.47
12907;DHT22;6521;50.498;8.474;2023-04-25T06:54:50;6.89;78.06
12907;DHT22;6521;50.498;8.474;2023-04-25T06:57:40;6.94;77.90
12907;DHT22;6521;50.498;8.474;2023-04-25T07:00:34;7.03;77.62
12907;DHT22;6521;50.498;8.474;2023-04-25T07:03:05;7.08;78.12
12907;DHT22;6521;50.498;8.474;2023-04-25T07:05:36;7.20;77.47
12907;DHT22;6521;50.498;8.474;2023-04-25T07:08:07;7.25;76.98
12907;DHT22;6521;50.498;8.474;2023-04-25T07:10:38;7.24;77.55
12907;DHT22;6521;50.498;8.474;2023-04-25T07:13:09;7.28;76.75
12907;DHT22;6521;50.498;8.474;2023-04-25T07:15:40;7.31;76.62
12907;DHT22;6521;50.498;8.474;2023-04-25T07:18:12;7.38;76.56
12907;DHT22;6521;50.498;8.474;2023-04-25T07:20:43;7.36;76.95
12907;DHT22;6521;50.498;8.474;2023-04-25T07:23:14;7.50;76.37
12907;DHT22;6521;50.498;8.474;2023-04-25T07:25:46;7.50;76.48
12907;DHT22;6521;50.498;8.474;2023-04-25T07:28:19;7.51;76.88
12907;DHT22;6521;50.498;8.474;2023-04-25T07:30:51;7.48;77.83
12907;DHT22;6521;50.498;8.474;2023-04-25T07:33:22;7.52;77.25
12907;DHT22;6521;50.498;8.474;2023-04-25T07:35:54;7.55;77.64
12907;DHT22;6521;50.498;8.474;2023-04-25T07:38:26;7.65;77.84
12907;DHT22;6521;50.498;8.474;2023-04-25T07:40:57;7.78;76.74
12907;DHT22;6521;50.498;8.474;2023-04-25T07:43:28;7.71;75.42
12907;DHT22;6521;50.498;8.474;2023-04-25T07:46:02;7.69;75.43
12907;DHT22;6521;50.498;8.474;2023-04-25T07:48:36;7.78;75.50
12907;DHT22;6521;50.498;8.474;2023-04-25T07:51:08;7.87;74.97
12907;DHT22;6521;50.498;8.474;2023-04-25T07:53:40;7.90;74.62
12907;DHT22;6521;50.498;8.474;2023-04-25T07:56:16;8.00;73.95
12907;DHT22;6521;50.498;8.474;2023-04-25T07:58:50;8.19;74.08
12907;DHT22;6521;50.498;8.474;2023-04-25T08:01:22;8.24;73.30
12907;DHT22;6521;50.498;8.474;2023-04-25T08:04:06;8.26;72.82
12907;DHT22;6521;50.498;8.474;2023-04-25T08:06:51;8.38;71.80
12907;DHT22;6521;50.498;8.474;2023-04-25T08:09:28;8.40;72.88
12907;DHT22;6521;50.498;8.474;2023-04-25T08:12:00;8.36;72.43
12907;DHT22;6521;50.498;8.474;2023-04-25T08:14:35;8.36;71.53
12907;DHT22;6521;50.498;8.474;2023-04-25T08:17:09;8.42;71.93
12907;DHT22;6521;50.498;8.474;2023-04-25T08:19:44;8.55;68.52
12907;DHT22;6521;50.498;8.474;2023-04-25T08:22:23;8.47;70.62
12907;DHT22;6521;50.498;8.474;2023-04-25T08:25:09;8.60;69.67
12907;DHT22;6521;50.498;8.474;2023-04-25T08:27:40;8.65;71.68
12907;DHT22;6521;50.498;8.474;2023-04-25T08:30:12;8.69;69.80
12907;DHT22;6521;50.498;8.474;2023-04-25T08:32:44;8.78;69.93
12907;DHT22;6521;50.498;8.474;2023-04-25T08:35:28;8.78;69.70
12907;DHT22;6521;50.498;8.474;2023-04-25T08:37:59;8.86;69.23
12907;DHT22;6521;50.498;8.474;2023-04-25T08:40:35;8.85;69.89
12907;DHT22;6521;50.498;8.474;2023-04-25T08:43:13;8.73;69.29
12907;DHT22;6521;50.498;8.474;2023-04-25T08:45:46;8.58;70.36
12907;DHT22;6521;50.498;8.474;2023-04-25T08:48:36;8.30;70.89
12907;DHT22;6521;50.498;8.474;2023-04-25T08:51:09;8.24;70.87
12907;DHT22;6521;50.498;8.474;2023-04-25T08:53:41;8.14;70.31
12907;DHT22;6521;50.498;8.474;2023-04-25T08:56:15;8.07;71.09
12907;DHT22;6521;50.498;8.474;2023-04-25T08:58:49;7.81;72.03
12907;DHT22;6521;50.498;8.474;2023-04-25T09:01:23;7.52;74.34
12907;DHT22;6521;50.498;8.474;2023-04-25T09:03:57;7.40;75.36
12907;DHT22;6521;50.498;8.474;2023-04-25T09:06:29;7.47;72.83
12907;DHT22;6521;50.498;8.474;2023-04-25T09:09:05;7.48;69.86
12907;DHT22;6521;50.498;8.474;2023-04-25T09:11:37;7.38;71.44
12907;DHT22;6521;50.498;8.474;2023-04-25T09:14:20;7.54;67.52
12907;DHT22;6521;50.498;8.474;2023-04-25T09:17:04;7.50;68.88
12907;DHT22;6521;50.498;8.474;2023-04-25T09:19:45;7.61;69.76
12907;DHT22;6521;50.498;8.474;2023-04-25T09:22:36;7.81;67.51
12907;DHT22;6521;50.498;8.474;2023-04-25T09:25:12;7.97;66.58
12907;DHT22;6521;50.498;8.474;2023-04-25T09:27:50;8.12;65.59
12907;DHT22;6521;50.498;8.474;2023-04-25T09:30:30;8.09;68.00
12907;DHT22;6521;50.498;8.474;2023-04-25T09:33:10;8.13;66.82
12907;DHT22;6521;50.498;8.474;2023-04-25T09:35:44;8.31;66.52
12907;DHT22;6521;50.498;8.474;2023-04-25T09:38:23;8.50;65.28
12907;DHT22;6521;50.498;8.474;2023-04-25T09:40:59;8.76;65.75
12907;DHT22;6521;50.498;8.474;2023-04-25T09:43:44;8.98;62.86
12907;DHT22;6521;50.498;8.474;2023-04-25T09:46:16;9.10;63.58
12907;DHT22;6521;50.498;8.474;2023-04-25T09:48:54;9.22;65.51
12907;DHT22;6521;50.498;8.474;2023-04-25T09:51:35;9.39;64.38
12907;DHT22;6521;50.498;8.474;2023-04-25T09:54:06;9.47;61.91
12907;DHT22;6521;50.498;8.474;2023-04-25T09:56:46;9.36;63.89
12907;DHT22;6521;50.498;8.474;2023-04-25T09:59:21;9.48;62.18
12907;DHT22;6521;50.498;8.474;2023-04-25T10:01:56;9.65;62.40
12907;DHT22;6521;50.498;8.474;2023-04-25T10:04:37;9.71;59.22
12907;DHT22;6521;50.498;8.474;2023-04-25T10:07:14;9.78;62.00
12907;DHT22;6521;50.498;8.474;2023-04-25T10:09:49;9.85;60.42
12907;DHT22;6521;50.498;8.474;2023-04-25T10:12:22;9.87;59.48
12907;DHT22;6521;50.498;8.474;2023-04-25T10:14:54;9.81;59.08
12907;DHT22;6521;50.498;8.474;2023-04-25T10:17:26;9.74;59.52
12907;DHT22;6521;50.498;8.474;2023-04-25T10:20:01;9.47;61.31
12907;DHT22;6521;50.498;8.474;2023-04-25T10:22:44;9.31;61.49
12907;DHT22;6521;50.498;8.474;2023-04-25T10:25:15;9.13;61.45
12907;DHT22;6521;50.498;8.474;2023-04-25T10:27:47;9.16;63.44
12907;DHT22;6521;50.498;8.474;2023-04-25T10:30:20;9.31;62.33
12907;DHT22;6521;50.498;8.474;2023-04-25T10:32:54;9.46;63.93
12907;DHT22;6521;50.498;8.474;2023-04-25T10:35:28;9.71;61.28
12907;DHT22;6521;50.498;8.474;2023-04-25T10:38:08;9.81;58.41
12907;DHT22;6521;50.498;8.474;2023-04-25T10:40:39;10.13;62.69
12907;DHT22;6521;50.498;8.474;2023-04-25T10:43:36;11.29;61.12
12907;DHT22;6521;50.498;8.474;2023-04-25T10:46:23;12.20;55.73
12907;DHT22;6521;50.498;8.474;2023-04-25T10:48:56;12.52;53.56
12907;DHT22;6521;50.498;8.474;2023-04-25T10:51:32;12.27;51.53
12907;DHT22;6521;50.498;8.474;2023-04-25T10:54:08;12.10;50.90
12907;DHT22;6521;50.498;8.474;2023-04-25T10:56:41;11.79;51.77
12907;DHT22;6521;50.498;8.474;2023-04-25T10:59:16;11.42;54.14
12907;DHT22;6521;50.498;8.474;2023-04-25T11:01:52;10.85;52.45
12907;DHT22;6521;50.498;8.474;2023-04-25T11:04:32;10.49;54.01
12907;DHT22;6521;50.498;8.474;2023-04-25T11:07:22;10.25;55.73
12907;DHT22;6521;50.498;8.474;2023-04-25T11:09:54;10.15;57.70
12907;DHT22;6521;50.498;8.474;2023-04-25T11:12:25;10.01;54.86
12907;DHT22;6521;50.498;8.474;2023-04-25T11:15:03;9.78;56.01
12907;DHT22;6521;50.498;8.474;2023-04-25T11:17:34;9.65;57.11
12907;DHT22;6521;50.498;8.474;2023-04-25T11:20:06;9.50;55.71
12907;DHT22;6521;50.498;8.474;2023-04-25T11:22:39;9.50;56.51
12907;DHT22;6521;50.498;8.474;2023-04-25T11:25:15;9.51;57.57
12907;DHT22;6521;50.498;8.474;2023-04-25T11:30:22;9.47;56.60
12907;DHT22;6521;50.498;8.474;2023-04-25T11:32:53;9.46;57.10
12907;DHT22;6521;50.498;8.474;2023-04-25T11:35:25;9.44;58.38
12907;DHT22;6521;50.498;8.474;2023-04-25T11:37:56;9.54;58.33
12907;DHT22;6521;50.498;8.474;2023-04-25T11:40:27;9.65;58.88
12907;DHT22;6521;50.498;8.474;2023-04-25T11:43:00;9.80;57.93
12907;DHT22;6521;50.498;8.474;2023-04-25T11:45:31;9.92;58.01
12907;DHT22;6521;50.498;8.474;2023-04-25T11:48:02;10.22;57.74
12907;DHT22;6521;50.498;8.474;2023-04-25T11:50:34;11.01;55.99
12907;DHT22;6521;50.498;8.474;2023-04-25T11:53:05;11.34;53.50
12907;DHT22;6521;50.498;8.474;2023-04-25T11:55:37;11.38;54.04
12907;DHT22;6521;50.498;8.474;2023-04-25T11:58:08;11.19;53.28
12907;DHT22;6521;50.498;8.474;2023-04-25T12:00:42;10.90;52.31
12907;DHT22;6521;50.498;8.474;2023-04-25T12:03:12;10.50;53.87
12907;DHT22;6521;50.498;8.474;2023-04-25T12:05:45;10.35;55.00
12907;DHT22;6521;50.498;8.474;2023-04-25T12:08:16;10.39;57.68
12907;DHT22;6521;50.498;8.474;2023-04-25T12:10:47;10.50;57.63
12907;DHT22;6521;50.498;8.474;2023-04-25T12:13:24;10.53;55.45
12907;DHT22;6521;50.498;8.474;2023-04-25T12:15:55;10.73;56.33
12907;DHT22;6521;50.498;8.474;2023-04-25T12:18:27;11.55;55.31
12907;DHT22;6521;50.498;8.474;2023-04-25T12:20:58;12.04;54.16
12907;DHT22;6521;50.498;8.474;2023-04-25T12:23:29;12.61;50.63
12907;DHT22;6521;50.498;8.474;2023-04-25T12:26:00;13.40;48.55
12907;DHT22;6521;50.498;8.474;2023-04-25T12:28:33;13.60;44.90
12907;DHT22;6521;50.498;8.474;2023-04-25T12:31:06;13.26;45.57
12907;DHT22;6521;50.498;8.474;2023-04-25T12:33:37;12.91;44.17
12907;DHT22;6521;50.498;8.474;2023-04-25T12:36:09;12.61;46.28
12907;DHT22;6521;50.498;8.474;2023-04-25T12:38:43;12.42;46.04
12907;DHT22;6521;50.498;8.474;2023-04-25T12:41:13;12.52;47.24
12907;DHT22;6521;50.498;8.474;2023-04-25T12:43:44;12.79;46.34
12907;DHT22;6521;50.498;8.474;2023-04-25T12:46:15;12.72;47.07
12907;DHT22;6521;50.498;8.474;2023-04-25T12:48:46;12.28;47.07
12907;DHT22;6521;50.498;8.474;2023-04-25T12:51:17;12.14;45.52
12907;DHT22;6521;50.498;8.474;2023-04-25T12:53:48;11.89;46.58
12907;DHT22;6521;50.498;8.474;2023-04-25T12:56:19;11.52;47.19
12907;DHT22;6521;50.498;8.474;2023-04-25T12:58:50;11.43;49.12
12907;DHT22;6521;50.498;8.474;2023-04-25T13:01:21;11.40;52.39
12907;DHT22;6521;50.498;8.474;2023-04-25T13:03:52;11.36;51.80
12907;DHT22;6521;50.498;8.474;2023-04-25T13:06:23;11.39;50.92
12907;DHT22;6521;50.498;8.474;2023-04-25T13:08:54;11.51;49.80
12907;DHT22;6521;50.498;8.474;2023-04-25T13:11:25;11.38;50.90
12907;DHT22;6521;50.498;8.474;2023-04-25T13:13:56;11.28;52.38
12907;DHT22;6521;50.498;8.474;2023-04-25T13:16:27;11.51;48.70
12907;DHT22;6521;50.498;8.474;2023-04-25T13:18:58;11.51;50.98
12907;DHT22;6521;50.498;8.474;2023-04-25T13:21:30;11.22;50.29
12907;DHT22;6521;50.498;8.474;2023-04-25T13:24:03;10.96;51.86
12907;DHT22;6521;50.498;8.474;2023-04-25T13:26:34;10.45;53.79
12907;DHT22;6521;50.498;8.474;2023-04-25T13:29:05;9.95;54.75
12907;DHT22;6521;50.498;8.474;2023-04-25T13:31:36;9.81;57.85
12907;DHT22;6521;50.498;8.474;2023-04-25T13:34:07;9.70;56.21
12907;DHT22;6521;50.498;8.474;2023-04-25T13:36:38;9.60;58.18
12907;DHT22;6521;50.498;8.474;2023-04-25T13:39:09;9.60;56.62
12907;DHT22;6521;50.498;8.474;2023-04-25T13:41:41;9.57;58.02
12907;DHT22;6521;50.498;8.474;2023-04-25T13:44:12;9.54;56.52
12907;DHT22;6521;50.498;8.474;2023-04-25T13:46:43;9.75;54.97
12907;DHT22;6521;50.498;8.474;2023-04-25T13:49:14;9.80;55.36
12907;DHT22;6521;50.498;8.474;2023-04-25T13:51:45;9.95;53.84
12907;DHT22;6521;50.498;8.474;2023-04-25T13:54:16;10.08;55.28
12907;DHT22;6521;50.498;8.474;2023-04-25T13:56:47;10.28;53.50
12907;DHT22;6521;50.498;8.474;2023-04-25T13:59:19;10.56;50.12
12907;DHT22;6521;50.498;8.474;2023-04-25T14:01:50;10.78;51.63
12907;DHT22;6521;50.498;8.474;2023-04-25T14:04:21;11.31;49.92
12907;DHT22;6521;50.498;8.474;2023-04-25T14:06:52;11.90;48.68
12907;DHT22;6521;50.498;8.474;2023-04-25T14:09:23;12.00;46.11
12907;DHT22;6521;50.498;8.474;2023-04-25T14:11:56;11.87;45.31
12907;DHT22;6521;50.498;8.474;2023-04-25T14:14:27;11.65;46.55
12907;DHT22;6521;50.498;8.474;2023-04-25T14:16:58;11.47;47.92
12907;DHT22;6521;50.498;8.474;2023-04-25T14:19:29;11.21;47.87
12907;DHT22;6521;50.498;8.474;2023-04-25T14:21:59;11.18;49.09
12907;DHT22;6521;50.498;8.474;2023-04-25T14:24:30;11.18;49.69
12907;DHT22;6521;50.498;8.474;2023-04-25T14:27:01;11.21;49.27
12907;DHT22;6521;50.498;8.474;2023-04-25T14:29:32;11.19;50.49
12907;DHT22;6521;50.498;8.474;2023-04-25T14:32:02;11.38;51.16
12907;DHT22;6521;50.498;8.474;2023-04-25T14:34:34;11.77;50.12
12907;DHT22;6521;50.498;8.474;2023-04-25T14:37:05;12.13;47.96
12907;DHT22;6521;50.498;8.474;2023-04-25T14:39:36;12.13;47.99
12907;DHT22;6521;50.498;8.474;2023-04-25T14:42:07;12.17;45.92
12907;DHT22;6521;50.498;8.474;2023-04-25T14:44:38;11.79;47.49
12907;DHT22;6521;50.498;8.474;2023-04-25T14:47:09;12.01;47.43
12907;DHT22;6521;50.498;8.474;2023-04-25T14:49:43;11.97;47.72
12907;DHT22;6521;50.498;8.474;2023-04-25T14:52:14;11.98;46.80
12907;DHT22;6521;50.498;8.474;2023-04-25T14:54:45;12.40;45.67
12907;DHT22;6521;50.498;8.474;2023-04-25T14:57:16;12.85;45.66
12907;DHT22;6521;50.498;8.474;2023-04-25T14:59:47;12.89;44.97
12907;DHT22;6521;50.498;8.474;2023-04-25T15:02:18;12.73;43.57
12907;DHT22;6521;50.498;8.474;2023-04-25T15:04:49;12.28;41.72
12907;DHT22;6521;50.498;8.474;2023-04-25T15:07:20;11.87;44.36
12907;DHT22;6521;50.498;8.474;2023-04-25T15:09:50;11.52;44.06
12907;DHT22;6521;50.498;8.474;2023-04-25T15:12:23;11.29;45.01
12907;DHT22;6521;50.498;8.474;2023-04-25T15:14:56;11.12;47.66
12907;DHT22;6521;50.498;8.474;2023-04-25T15:17:27;10.97;44.93
12907;DHT22;6521;50.498;8.474;2023-04-25T15:20:01;10.73;46.46
12907;DHT22;6521;50.498;8.474;2023-04-25T15:22:32;10.49;47.08
12907;DHT22;6521;50.498;8.474;2023-04-25T15:25:03;10.32;47.81
12907;DHT22;6521;50.498;8.474;2023-04-25T15:27:35;10.20;50.61
12907;DHT22;6521;50.498;8.474;2023-04-25T15:30:11;10.12;51.11
12907;DHT22;6521;50.498;8.474;2023-04-25T15:32:44;10.05;51.81
12907;DHT22;6521;50.498;8.474;2023-04-25T15:35:16;10.13;51.68
12907;DHT22;6521;50.498;8.474;2023-04-25T15:37:47;10.06;50.65
12907;DHT22;6521;50.498;8.474;2023-04-25T15:40:18;9.99;53.17
12907;DHT22;6521;50.498;8.474;2023-04-25T15:42:49;10.06;51.90
12907;DHT22;6521;50.498;8.474;2023-04-25T15:45:24;10.16;52.22
12907;DHT22;6521;50.498;8.474;2023-04-25T15:47:55;10.19;49.53
12907;DHT22;6521;50.498;8.474;2023-04-25T15:50:26;10.19;48.32
12907;DHT22;6521;50.498;8.474;2023-04-25T15:52:58;10.13;48.70
12907;DHT22;6521;50.498;8.474;2023-04-25T15:55:29;10.32;50.01
12907;DHT22;6521;50.498;8.474;2023-04-25T15:58:00;10.71;49.26
12907;DHT22;6521;50.498;8.474;2023-04-25T16:00:30;11.25;47.83
12907;DHT22;6521;50.498;8.474;2023-04-25T16:03:07;11.62;47.60
12907;DHT22;6521;50.498;8.474;2023-04-25T16:05:38;11.80;46.15
12907;DHT22;6521;50.498;8.474;2023-04-25T16:08:11;11.76;44.58
12907;DHT22;6521;50.498;8.474;2023-04-25T16:10:41;11.46;45.34
12907;DHT22;6521;50.498;8.474;2023-04-25T16:13:12;11.22;42.60
12907;DHT22;6521;50.498;8.474;2023-04-25T16:15:43;11.15;44.81
12907;DHT22;6521;50.498;8.474;2023-04-25T16:18:14;11.08;46.15
12907;DHT22;6521;50.498;8.474;2023-04-25T16:20:45;10.87;45.28
12907;DHT22;6521;50.498;8.474;2023-04-25T16:23:19;10.71;46.10
12907;DHT22;6521;50.498;8.474;2023-04-25T16:25:49;10.56;47.83
12907;DHT22;6521;50.498;8.474;2023-04-25T16:28:20;10.35;47.89
12907;DHT22;6521;50.498;8.474;2023-04-25T16:30:51;10.33;48.40
12907;DHT22;6521;50.498;8.474;2023-04-25T16:33:22;10.33;49.01
12907;DHT22;6521;50.498;8.474;2023-04-25T16:35:53;10.39;50.53
12907;DHT22;6521;50.498;8.474;2023-04-25T16:38:24;10.52;51.25
12907;DHT22;6521;50.498;8.474;2023-04-25T16:40:55;10.46;51.91
12907;DHT22;6521;50.498;8.474;2023-04-25T16:43:26;10.33;52.35
12907;DHT22;6521;50.498;8.474;2023-04-25T16:45:57;10.15;52.24